sensor_id;sensor_type;location;lat;lon;timestamp;P1;durP1;ratioP1;P2;durP2;ratioP2
72676;SDS011;60755;51.374;10.662;2023-12-04T00:01:11;34.67;;;16.37;;
72676;SDS011;60755;51.374;10.662;2023-12-04T00:03:38;30.77;;;15.20;;
72676;SDS011;60755;51.374;10.662;2023-12-04T00:06:07;29.67;;;15.63;;
72676;SDS011;60755;51.374;10.662;2023-12-04T00:08:35;33.60;;;16.27;;
72676;SDS011;60755;51.374;10.662;2023-12-04T00:11:02;31.20;;;15.93;;
72676;SDS011;60755;51.374;10.662;2023-12-04T00:13:30;28.77;;;14.07;;
72676;SDS011;60755;51.374;10.662;2023-12-04T00:15:57;29.00;;;14.57;;
72676;SDS011;60755;51.374;10.662;2023-12-04T00:18:24;29.73;;;14.60;;
72676;SDS011;60755;51.374;10.662;2023-12-04T00:20:51;24.93;;;13.27;;
72676;SDS011;60755;51.374;10.662;2023-12-04T00:23:20;28.70;;;14.20;;
72676;SDS011;60755;51.374;10.662;2023-12-04T00:25:46;25.63;;;12.77;;
72676;SDS011;60755;51.374;10.662;2023-12-04T00:28:13;27.20;;;13.77;;
72676;SDS011;60755;51.374;10.662;2023-12-04T00:30:40;25.57;;;13.47;;
72676;SDS011;60755;51.374;10.662;2023-12-04T00:33:07;24.80;;;13.23;;
72676;SDS011;60755;51.374;10.662;2023-12-04T00:35:34;26.00;;;13.37;;
72676;SDS011;60755;51.374;10.662;2023-12-04T00:38:01;36.00;;;17.33;;
72676;SDS011;60755;51.374;10.662;2023-12-04T00:40:29;23.90;;;13.80;;
72676;SDS011;60755;51.374;10.662;2023-12-04T00:42:56;24.60;;;12.90;;
72676;SDS011;60755;51.374;10.662;2023-12-04T00:45:23;27.60;;;12.93;;
72676;SDS011;60755;51.374;10.662;2023-12-04T00:47:50;23.37;;;12.93;;
72676;SDS011;60755;51.374;10.662;2023-12-04T00:50:17;23.83;;;12.30;;
72676;SDS011;60755;51.374;10.662;2023-12-04T00:52:44;20.83;;;11.77;;
72676;SDS011;60755;51.374;10.662;2023-12-04T00:55:11;19.63;;;10.43;;
72676;SDS011;60755;51.374;10.662;2023-12-04T00:57:40;19.00;;;10.60;;
72676;SDS011;60755;51.374;10.662;2023-12-04T01:00:07;19.53;;;11.03;;
72676;SDS011;60755;51.374;10.662;2023-12-04T01:02:35;20.17;;;11.00;;
72676;SDS011;60755;51.374;10.662;2023-12-04T01:05:02;19.67;;;10.53;;
72676;SDS011;60755;51.374;10.662;2023-12-04T01:07:29;18.83;;;10.47;;
72676;SDS011;60755;51.374;10.662;2023-12-04T01:09:56;19.27;;;10.10;;
72676;SDS011;60755;51.374;10.662;2023-12-04T01:12:23;19.83;;;10.43;;
72676;SDS011;60755;51.374;10.662;2023-12-04T01:14:52;18.63;;;10.77;;
72676;SDS011;60755;51.374;10.662;2023-12-04T01:17:19;21.10;;;11.03;;
72676;SDS011;60755;51.374;10.662;2023-12-04T01:19:46;19.17;;;10.53;;
72676;SDS011;60755;51.374;10.662;2023-12-04T01:22:13;18.90;;;9.77;;
72676;SDS011;60755;51.374;10.662;2023-12-04T01:24:40;20.60;;;10.97;;
72676;SDS011;60755;51.374;10.662;2023-12-04T01:27:07;21.03;;;11.13;;
72676;SDS011;60755;51.374;10.662;2023-12-04T01:29:33;19.93;;;10.77;;
72676;SDS011;60755;51.374;10.662;2023-12-04T01:32:02;21.20;;;10.57;;
72676;SDS011;60755;51.374;10.662;2023-12-04T01:34:29;19.43;;;10.90;;
72676;SDS011;60755;51.374;10.662;2023-12-04T01:36:56;19.60;;;10.20;;
72676;SDS011;60755;51.374;10.662;2023-12-04T01:39:23;20.30;;;11.20;;
72676;SDS011;60755;51.374;10.662;2023-12-04T01:41:50;22.33;;;10.60;;
72676;SDS011;60755;51.374;10.662;2023-12-04T01:44:17;21.97;;;11.13;;
72676;SDS011;60755;51.374;10.662;2023-12-04T01:46:44;22.83;;;11.10;;
72676;SDS011;60755;51.374;10.662;2023-12-04T01:49:12;23.63;;;11.47;;
72676;SDS011;60755;51.374;10.662;2023-12-04T01:51:40;21.37;;;11.40;;
72676;SDS011;60755;51.374;10.662;2023-12-04T01:54:08;21.90;;;10.87;;
72676;SDS011;60755;51.374;10.662;2023-12-04T01:56:35;19.90;;;10.60;;
72676;SDS011;60755;51.374;10.662;2023-12-04T01:59:03;21.67;;;11.43;;
72676;SDS011;60755;51.374;10.662;2023-12-04T02:01:30;22.27;;;11.07;;
72676;SDS011;60755;51.374;10.662;2023-12-04T02:03:57;21.37;;;11.80;;
72676;SDS011;60755;51.374;10.662;2023-12-04T02:06:28;22.17;;;11.23;;
72676;SDS011;60755;51.374;10.662;2023-12-04T02:08:55;19.07;;;10.83;;
72676;SDS011;60755;51.374;10.662;2023-12-04T02:11:23;20.03;;;10.63;;
72676;SDS011;60755;51.374;10.662;2023-12-04T02:13:50;19.90;;;11.00;;
72676;SDS011;60755;51.374;10.662;2023-12-04T02:16:17;21.90;;;10.57;;
72676;SDS011;60755;51.374;10.662;2023-12-04T02:18:46;23.73;;;11.43;;
72676;SDS011;60755;51.374;10.662;2023-12-04T02:21:13;23.87;;;11.30;;
72676;SDS011;60755;51.374;10.662;2023-12-04T02:23:41;19.67;;;10.53;;
72676;SDS011;60755;51.374;10.662;2023-12-04T02:26:10;19.30;;;10.30;;
72676;SDS011;60755;51.374;10.662;2023-12-04T02:28:42;16.70;;;10.17;;
72676;SDS011;60755;51.374;10.662;2023-12-04T02:31:16;21.37;;;10.50;;
72676;SDS011;60755;51.374;10.662;2023-12-04T02:33:44;19.17;;;10.80;;
72676;SDS011;60755;51.374;10.662;2023-12-04T02:36:13;21.70;;;11.13;;
72676;SDS011;60755;51.374;10.662;2023-12-04T02:38:41;22.10;;;10.57;;
72676;SDS011;60755;51.374;10.662;2023-12-04T02:41:09;17.93;;;10.23;;
72676;SDS011;60755;51.374;10.662;2023-12-04T02:43:37;21.53;;;11.20;;
72676;SDS011;60755;51.374;10.662;2023-12-04T02:46:04;21.37;;;10.70;;
72676;SDS011;60755;51.374;10.662;2023-12-04T02:48:31;17.73;;;9.60;;
72676;SDS011;60755;51.374;10.662;2023-12-04T02:50:58;20.33;;;10.20;;
72676;SDS011;60755;51.374;10.662;2023-12-04T02:53:25;21.77;;;10.87;;
72676;SDS011;60755;51.374;10.662;2023-12-04T02:55:52;19.80;;;10.20;;
72676;SDS011;60755;51.374;10.662;2023-12-04T02:58:20;19.23;;;10.33;;
72676;SDS011;60755;51.374;10.662;2023-12-04T03:00:47;19.60;;;10.77;;
72676;SDS011;60755;51.374;10.662;2023-12-04T03:03:14;19.30;;;11.27;;
72676;SDS011;60755;51.374;10.662;2023-12-04T03:05:41;20.60;;;10.57;;
72676;SDS011;60755;51.374;10.662;2023-12-04T03:08:08;18.33;;;10.40;;
72676;SDS011;60755;51.374;10.662;2023-12-04T03:10:35;19.33;;;11.00;;
72676;SDS011;60755;51.374;10.662;2023-12-04T03:13:02;21.23;;;11.30;;
72676;SDS011;60755;51.374;10.662;2023-12-04T03:15:30;18.40;;;10.10;;
72676;SDS011;60755;51.374;10.662;2023-12-04T03:17:58;20.27;;;11.10;;
72676;SDS011;60755;51.374;10.662;2023-12-04T03:20:26;21.33;;;11.50;;
72676;SDS011;60755;51.374;10.662;2023-12-04T03:22:52;23.30;;;11.70;;
72676;SDS011;60755;51.374;10.662;2023-12-04T03:25:19;22.17;;;11.37;;
72676;SDS011;60755;51.374;10.662;2023-12-04T03:27:46;19.70;;;10.50;;
72676;SDS011;60755;51.374;10.662;2023-12-04T03:30:13;20.00;;;11.33;;
72676;SDS011;60755;51.374;10.662;2023-12-04T03:32:43;21.40;;;11.33;;
72676;SDS011;60755;51.374;10.662;2023-12-04T03:35:09;24.23;;;11.53;;
72676;SDS011;60755;51.374;10.662;2023-12-04T03:37:36;21.53;;;10.83;;
72676;SDS011;60755;51.374;10.662;2023-12-04T03:40:04;19.93;;;10.67;;
72676;SDS011;60755;51.374;10.662;2023-12-04T03:42:31;21.73;;;10.67;;
72676;SDS011;60755;51.374;10.662;2023-12-04T03:44:58;22.37;;;10.87;;
72676;SDS011;60755;51.374;10.662;2023-12-04T03:47:26;21.90;;;10.93;;
72676;SDS011;60755;51.374;10.662;2023-12-04T03:49:54;19.53;;;10.50;;
72676;SDS011;60755;51.374;10.662;2023-12-04T03:52:21;20.30;;;10.80;;
72676;SDS011;60755;51.374;10.662;2023-12-04T03:54:48;20.20;;;10.63;;
72676;SDS011;60755;51.374;10.662;2023-12-04T03:57:15;18.80;;;10.03;;
72676;SDS011;60755;51.374;10.662;2023-12-04T03:59:43;20.97;;;11.00;;
72676;SDS011;60755;51.374;10.662;2023-12-04T04:02:10;19.87;;;10.87;;
72676;SDS011;60755;51.374;10.662;2023-12-04T04:04:37;20.87;;;11.07;;
72676;SDS011;60755;51.374;10.662;2023-12-04T04:07:05;21.73;;;11.50;;
72676;SDS011;60755;51.374;10.662;2023-12-04T04:09:32;18.70;;;10.63;;
72676;SDS011;60755;51.374;10.662;2023-12-04T04:11:59;20.63;;;10.93;;
72676;SDS011;60755;51.374;10.662;2023-12-04T04:14:26;23.47;;;11.20;;
72676;SDS011;60755;51.374;10.662;2023-12-04T04:16:53;20.93;;;11.00;;
72676;SDS011;60755;51.374;10.662;2023-12-04T04:19:20;20.17;;;10.50;;
72676;SDS011;60755;51.374;10.662;2023-12-04T04:21:47;18.40;;;10.20;;
72676;SDS011;60755;51.374;10.662;2023-12-04T04:24:15;19.73;;;10.13;;
72676;SDS011;60755;51.374;10.662;2023-12-04T04:26:42;18.30;;;10.43;;
72676;SDS011;60755;51.374;10.662;2023-12-04T04:29:09;18.40;;;10.03;;
72676;SDS011;60755;51.374;10.662;2023-12-04T04:31:36;19.67;;;10.30;;
72676;SDS011;60755;51.374;10.662;2023-12-04T04:34:03;19.80;;;10.07;;
72676;SDS011;60755;51.374;10.662;2023-12-04T04:36:30;15.57;;;9.27;;
72676;SDS011;60755;51.374;10.662;2023-12-04T04:38:57;19.07;;;10.03;;
72676;SDS011;60755;51.374;10.662;2023-12-04T04:41:26;19.43;;;10.07;;
72676;SDS011;60755;51.374;10.662;2023-12-04T04:43:52;17.17;;;9.73;;
72676;SDS011;60755;51.374;10.662;2023-12-04T04:46:20;18.20;;;9.23;;
72676;SDS011;60755;51.374;10.662;2023-12-04T04:48:47;16.13;;;9.37;;
72676;SDS011;60755;51.374;10.662;2023-12-04T04:51:13;15.57;;;8.43;;
72676;SDS011;60755;51.374;10.662;2023-12-04T04:53:40;17.33;;;8.67;;
72676;SDS011;60755;51.374;10.662;2023-12-04T04:56:08;15.70;;;8.90;;
72676;SDS011;60755;51.374;10.662;2023-12-04T04:58:37;15.47;;;8.77;;
72676;SDS011;60755;51.374;10.662;2023-12-04T05:01:04;16.77;;;8.83;;
72676;SDS011;60755;51.374;10.662;2023-12-04T05:03:31;16.63;;;8.63;;
72676;SDS011;60755;51.374;10.662;2023-12-04T05:05:58;17.23;;;9.40;;
72676;SDS011;60755;51.374;10.662;2023-12-04T05:08:25;14.80;;;8.87;;
72676;SDS011;60755;51.374;10.662;2023-12-04T05:10:52;17.10;;;9.47;;
72676;SDS011;60755;51.374;10.662;2023-12-04T05:13:19;18.57;;;9.70;;
72676;SDS011;60755;51.374;10.662;2023-12-04T05:15:47;16.93;;;8.30;;
72676;SDS011;60755;51.374;10.662;2023-12-04T05:18:14;16.23;;;8.70;;
72676;SDS011;60755;51.374;10.662;2023-12-04T05:20:41;17.77;;;9.17;;
72676;SDS011;60755;51.374;10.662;2023-12-04T05:23:08;17.57;;;9.20;;
72676;SDS011;60755;51.374;10.662;2023-12-04T05:25:35;14.70;;;8.10;;
72676;SDS011;60755;51.374;10.662;2023-12-04T05:28:02;15.43;;;8.20;;
72676;SDS011;60755;51.374;10.662;2023-12-04T05:30:29;15.80;;;8.73;;
72676;SDS011;60755;51.374;10.662;2023-12-04T05:32:58;16.93;;;8.63;;
72676;SDS011;60755;51.374;10.662;2023-12-04T05:35:25;13.40;;;8.30;;
72676;SDS011;60755;51.374;10.662;2023-12-04T05:37:52;15.10;;;8.47;;
72676;SDS011;60755;51.374;10.662;2023-12-04T05:40:19;15.07;;;8.60;;
72676;SDS011;60755;51.374;10.662;2023-12-04T05:42:46;12.67;;;7.90;;
72676;SDS011;60755;51.374;10.662;2023-12-04T05:45:13;15.23;;;8.23;;
72676;SDS011;60755;51.374;10.662;2023-12-04T05:47:40;15.60;;;9.00;;
72676;SDS011;60755;51.374;10.662;2023-12-04T05:50:08;17.53;;;9.07;;
72676;SDS011;60755;51.374;10.662;2023-12-04T05:52:35;17.33;;;9.07;;
72676;SDS011;60755;51.374;10.662;2023-12-04T05:55:03;15.80;;;8.33;;
72676;SDS011;60755;51.374;10.662;2023-12-04T05:57:30;15.33;;;8.27;;
72676;SDS011;60755;51.374;10.662;2023-12-04T05:59:57;15.43;;;8.60;;
72676;SDS011;60755;51.374;10.662;2023-12-04T06:02:25;16.73;;;8.13;;
72676;SDS011;60755;51.374;10.662;2023-12-04T06:04:53;14.23;;;8.70;;
72676;SDS011;60755;51.374;10.662;2023-12-04T06:07:21;17.23;;;9.17;;
72676;SDS011;60755;51.374;10.662;2023-12-04T06:09:48;16.77;;;9.10;;
72676;SDS011;60755;51.374;10.662;2023-12-04T06:12:15;15.90;;;8.93;;
72676;SDS011;60755;51.374;10.662;2023-12-04T06:14:42;14.97;;;8.53;;
72676;SDS011;60755;51.374;10.662;2023-12-04T06:17:09;16.43;;;9.10;;
72676;SDS011;60755;51.374;10.662;2023-12-04T06:19:36;14.33;;;7.83;;
72676;SDS011;60755;51.374;10.662;2023-12-04T06:22:03;14.23;;;8.27;;
72676;SDS011;60755;51.374;10.662;2023-12-04T06:24:32;15.43;;;8.57;;
72676;SDS011;60755;51.374;10.662;2023-12-04T06:26:59;13.67;;;8.33;;
72676;SDS011;60755;51.374;10.662;2023-12-04T06:29:27;15.13;;;8.90;;
72676;SDS011;60755;51.374;10.662;2023-12-04T06:31:55;15.27;;;8.73;;
72676;SDS011;60755;51.374;10.662;2023-12-04T06:34:23;15.20;;;8.97;;
72676;SDS011;60755;51.374;10.662;2023-12-04T06:36:51;15.63;;;9.10;;
72676;SDS011;60755;51.374;10.662;2023-12-04T06:39:18;16.53;;;8.73;;
72676;SDS011;60755;51.374;10.662;2023-12-04T06:41:48;17.67;;;9.70;;
72676;SDS011;60755;51.374;10.662;2023-12-04T06:44:15;18.67;;;9.00;;
72676;SDS011;60755;51.374;10.662;2023-12-04T06:46:43;15.47;;;8.73;;
72676;SDS011;60755;51.374;10.662;2023-12-04T06:49:15;16.20;;;8.40;;
72676;SDS011;60755;51.374;10.662;2023-12-04T06:51:44;14.80;;;8.57;;
72676;SDS011;60755;51.374;10.662;2023-12-04T06:54:11;16.27;;;8.93;;
72676;SDS011;60755;51.374;10.662;2023-12-04T06:56:39;13.77;;;8.37;;
72676;SDS011;60755;51.374;10.662;2023-12-04T06:59:07;16.27;;;8.77;;
72676;SDS011;60755;51.374;10.662;2023-12-04T07:01:35;15.23;;;8.57;;
72676;SDS011;60755;51.374;10.662;2023-12-04T07:04:02;16.73;;;8.87;;
72676;SDS011;60755;51.374;10.662;2023-12-04T07:06:35;16.30;;;9.00;;
72676;SDS011;60755;51.374;10.662;2023-12-04T07:09:02;16.67;;;8.83;;
72676;SDS011;60755;51.374;10.662;2023-12-04T07:11:30;16.97;;;8.50;;
72676;SDS011;60755;51.374;10.662;2023-12-04T07:13:58;18.00;;;9.37;;
72676;SDS011;60755;51.374;10.662;2023-12-04T07:16:26;15.00;;;8.37;;
72676;SDS011;60755;51.374;10.662;2023-12-04T07:18:53;17.80;;;10.33;;
72676;SDS011;60755;51.374;10.662;2023-12-04T07:21:21;14.17;;;8.07;;
72676;SDS011;60755;51.374;10.662;2023-12-04T07:23:48;16.23;;;8.87;;
72676;SDS011;60755;51.374;10.662;2023-12-04T07:26:15;15.13;;;8.73;;
72676;SDS011;60755;51.374;10.662;2023-12-04T07:28:42;16.10;;;8.80;;
72676;SDS011;60755;51.374;10.662;2023-12-04T07:31:10;14.30;;;7.97;;
72676;SDS011;60755;51.374;10.662;2023-12-04T07:33:38;16.13;;;8.60;;
72676;SDS011;60755;51.374;10.662;2023-12-04T07:36:06;15.37;;;8.47;;
72676;SDS011;60755;51.374;10.662;2023-12-04T07:38:33;16.03;;;8.40;;
72676;SDS011;60755;51.374;10.662;2023-12-04T07:41:00;16.00;;;8.53;;
72676;SDS011;60755;51.374;10.662;2023-12-04T07:43:28;15.57;;;8.67;;
72676;SDS011;60755;51.374;10.662;2023-12-04T07:45:55;14.03;;;8.30;;
72676;SDS011;60755;51.374;10.662;2023-12-04T07:48:23;12.17;;;7.53;;
72676;SDS011;60755;51.374;10.662;2023-12-04T07:50:51;14.00;;;8.33;;
72676;SDS011;60755;51.374;10.662;2023-12-04T07:53:19;14.37;;;8.33;;
72676;SDS011;60755;51.374;10.662;2023-12-04T07:55:46;12.53;;;8.17;;
72676;SDS011;60755;51.374;10.662;2023-12-04T07:58:14;13.90;;;8.43;;
72676;SDS011;60755;51.374;10.662;2023-12-04T08:00:41;13.30;;;8.13;;
72676;SDS011;60755;51.374;10.662;2023-12-04T08:03:08;12.43;;;7.70;;
72676;SDS011;60755;51.374;10.662;2023-12-04T08:05:35;14.40;;;8.50;;
72676;SDS011;60755;51.374;10.662;2023-12-04T08:08:04;11.17;;;7.13;;
72676;SDS011;60755;51.374;10.662;2023-12-04T08:10:32;11.87;;;7.30;;
72676;SDS011;60755;51.374;10.662;2023-12-04T08:12:59;14.97;;;8.30;;
72676;SDS011;60755;51.374;10.662;2023-12-04T08:15:26;14.80;;;8.87;;
72676;SDS011;60755;51.374;10.662;2023-12-04T08:17:54;14.00;;;8.03;;
72676;SDS011;60755;51.374;10.662;2023-12-04T08:20:23;13.33;;;8.30;;
72676;SDS011;60755;51.374;10.662;2023-12-04T08:22:50;12.13;;;7.57;;
72676;SDS011;60755;51.374;10.662;2023-12-04T08:25:19;12.80;;;7.87;;
72676;SDS011;60755;51.374;10.662;2023-12-04T08:27:46;12.97;;;7.50;;
72676;SDS011;60755;51.374;10.662;2023-12-04T08:30:14;12.60;;;7.70;;
72676;SDS011;60755;51.374;10.662;2023-12-04T08:32:41;11.13;;;7.43;;
72676;SDS011;60755;51.374;10.662;2023-12-04T08:35:08;11.60;;;7.43;;
72676;SDS011;60755;51.374;10.662;2023-12-04T08:37:35;11.47;;;7.10;;
72676;SDS011;60755;51.374;10.662;2023-12-04T08:40:02;10.47;;;7.50;;
72676;SDS011;60755;51.374;10.662;2023-12-04T08:42:31;11.80;;;7.50;;
72676;SDS011;60755;51.374;10.662;2023-12-04T08:44:59;9.73;;;6.43;;
72676;SDS011;60755;51.374;10.662;2023-12-04T08:47:26;10.07;;;6.93;;
72676;SDS011;60755;51.374;10.662;2023-12-04T08:49:54;12.47;;;7.20;;
72676;SDS011;60755;51.374;10.662;2023-12-04T08:52:21;10.80;;;7.00;;
72676;SDS011;60755;51.374;10.662;2023-12-04T08:54:48;11.40;;;7.30;;
72676;SDS011;60755;51.374;10.662;2023-12-04T08:57:15;10.87;;;7.30;;
72676;SDS011;60755;51.374;10.662;2023-12-04T08:59:44;14.17;;;7.53;;
72676;SDS011;60755;51.374;10.662;2023-12-04T09:02:12;10.33;;;6.80;;
72676;SDS011;60755;51.374;10.662;2023-12-04T09:04:39;15.07;;;7.23;;
72676;SDS011;60755;51.374;10.662;2023-12-04T09:07:06;11.00;;;7.00;;
72676;SDS011;60755;51.374;10.662;2023-12-04T09:09:33;10.60;;;6.97;;
72676;SDS011;60755;51.374;10.662;2023-12-04T09:12:00;10.40;;;6.67;;
72676;SDS011;60755;51.374;10.662;2023-12-04T09:14:28;11.80;;;7.23;;
72676;SDS011;60755;51.374;10.662;2023-12-04T09:16:57;10.17;;;6.57;;
72676;SDS011;60755;51.374;10.662;2023-12-04T09:19:24;11.40;;;7.07;;
72676;SDS011;60755;51.374;10.662;2023-12-04T09:21:51;8.53;;;6.10;;
72676;SDS011;60755;51.374;10.662;2023-12-04T09:24:18;10.27;;;6.77;;
72676;SDS011;60755;51.374;10.662;2023-12-04T09:26:45;9.27;;;6.30;;
72676;SDS011;60755;51.374;10.662;2023-12-04T09:29:13;10.57;;;6.23;;
72676;SDS011;60755;51.374;10.662;2023-12-04T09:31:41;8.40;;;5.90;;
72676;SDS011;60755;51.374;10.662;2023-12-04T09:34:10;10.10;;;6.67;;
72676;SDS011;60755;51.374;10.662;2023-12-04T09:36:37;8.90;;;5.90;;
72676;SDS011;60755;51.374;10.662;2023-12-04T09:39:04;9.93;;;6.23;;
72676;SDS011;60755;51.374;10.662;2023-12-04T09:41:31;11.20;;;6.57;;
72676;SDS011;60755;51.374;10.662;2023-12-04T09:43:59;10.10;;;6.70;;
72676;SDS011;60755;51.374;10.662;2023-12-04T09:46:27;11.07;;;6.27;;
72676;SDS011;60755;51.374;10.662;2023-12-04T09:48:55;9.07;;;6.17;;
72676;SDS011;60755;51.374;10.662;2023-12-04T09:51:24;10.83;;;6.73;;
72676;SDS011;60755;51.374;10.662;2023-12-04T09:53:54;10.50;;;6.40;;
72676;SDS011;60755;51.374;10.662;2023-12-04T09:56:23;8.43;;;6.13;;
72676;SDS011;60755;51.374;10.662;2023-12-04T09:58:51;8.43;;;6.10;;
72676;SDS011;60755;51.374;10.662;2023-12-04T10:01:24;10.07;;;6.33;;
72676;SDS011;60755;51.374;10.662;2023-12-04T10:03:51;9.87;;;5.97;;
72676;SDS011;60755;51.374;10.662;2023-12-04T10:06:19;8.97;;;6.07;;
72676;SDS011;60755;51.374;10.662;2023-12-04T10:08:48;8.63;;;6.10;;
72676;SDS011;60755;51.374;10.662;2023-12-04T10:11:15;7.70;;;6.00;;
72676;SDS011;60755;51.374;10.662;2023-12-04T10:13:42;9.37;;;6.23;;
72676;SDS011;60755;51.374;10.662;2023-12-04T10:16:10;8.80;;;6.00;;
72676;SDS011;60755;51.374;10.662;2023-12-04T10:18:37;7.70;;;5.37;;
72676;SDS011;60755;51.374;10.662;2023-12-04T10:21:04;10.27;;;6.50;;
72676;SDS011;60755;51.374;10.662;2023-12-04T10:23:37;8.20;;;5.77;;
72676;SDS011;60755;51.374;10.662;2023-12-04T10:26:06;9.67;;;6.17;;
72676;SDS011;60755;51.374;10.662;2023-12-04T10:28:34;8.47;;;5.97;;
72676;SDS011;60755;51.374;10.662;2023-12-04T10:31:01;8.83;;;6.07;;
72676;SDS011;60755;51.374;10.662;2023-12-04T10:33:32;9.37;;;6.30;;
72676;SDS011;60755;51.374;10.662;2023-12-04T10:35:59;9.60;;;6.33;;
72676;SDS011;60755;51.374;10.662;2023-12-04T10:38:28;10.50;;;7.20;;
72676;SDS011;60755;51.374;10.662;2023-12-04T10:40:55;12.40;;;8.00;;
72676;SDS011;60755;51.374;10.662;2023-12-04T10:43:24;11.50;;;7.30;;
72676;SDS011;60755;51.374;10.662;2023-12-04T10:45:52;10.33;;;6.83;;
72676;SDS011;60755;51.374;10.662;2023-12-04T10:48:20;12.07;;;7.13;;
72676;SDS011;60755;51.374;10.662;2023-12-04T10:50:48;8.97;;;6.90;;
72676;SDS011;60755;51.374;10.662;2023-12-04T10:53:16;10.73;;;6.63;;
72676;SDS011;60755;51.374;10.662;2023-12-04T10:55:44;8.57;;;6.00;;
72676;SDS011;60755;51.374;10.662;2023-12-04T10:58:12;9.43;;;6.80;;
72676;SDS011;60755;51.374;10.662;2023-12-04T11:00:43;8.90;;;5.93;;
72676;SDS011;60755;51.374;10.662;2023-12-04T11:03:13;10.03;;;6.60;;
72676;SDS011;60755;51.374;10.662;2023-12-04T11:05:49;10.00;;;6.57;;
72676;SDS011;60755;51.374;10.662;2023-12-04T11:08:27;9.27;;;6.27;;
72676;SDS011;60755;51.374;10.662;2023-12-04T11:10:56;10.57;;;6.70;;
72676;SDS011;60755;51.374;10.662;2023-12-04T11:13:26;9.00;;;6.70;;
72676;SDS011;60755;51.374;10.662;2023-12-04T11:15:59;9.57;;;6.60;;
72676;SDS011;60755;51.374;10.662;2023-12-04T11:18:30;10.13;;;6.80;;
72676;SDS011;60755;51.374;10.662;2023-12-04T11:21:02;9.63;;;6.57;;
72676;SDS011;60755;51.374;10.662;2023-12-04T11:23:32;8.70;;;6.03;;
72676;SDS011;60755;51.374;10.662;2023-12-04T11:26:01;7.23;;;5.63;;
72676;SDS011;60755;51.374;10.662;2023-12-04T11:28:30;9.10;;;6.53;;
72676;SDS011;60755;51.374;10.662;2023-12-04T11:31:00;9.67;;;6.30;;
72676;SDS011;60755;51.374;10.662;2023-12-04T11:33:28;8.47;;;5.70;;
72676;SDS011;60755;51.374;10.662;2023-12-04T11:36:05;8.27;;;5.60;;
72676;SDS011;60755;51.374;10.662;2023-12-04T11:38:34;7.50;;;5.50;;
72676;SDS011;60755;51.374;10.662;2023-12-04T11:41:11;8.50;;;5.90;;
72676;SDS011;60755;51.374;10.662;2023-12-04T11:43:41;7.37;;;5.37;;
72676;SDS011;60755;51.374;10.662;2023-12-04T11:46:11;7.47;;;5.87;;
72676;SDS011;60755;51.374;10.662;2023-12-04T11:48:40;8.83;;;6.10;;
72676;SDS011;60755;51.374;10.662;2023-12-04T11:51:09;9.00;;;6.13;;
72676;SDS011;60755;51.374;10.662;2023-12-04T11:53:39;10.07;;;6.33;;
72676;SDS011;60755;51.374;10.662;2023-12-04T11:56:10;8.93;;;6.17;;
72676;SDS011;60755;51.374;10.662;2023-12-04T11:58:44;8.03;;;6.03;;
72676;SDS011;60755;51.374;10.662;2023-12-04T12:01:16;7.93;;;5.70;;
72676;SDS011;60755;51.374;10.662;2023-12-04T12:03:44;7.73;;;6.17;;
72676;SDS011;60755;51.374;10.662;2023-12-04T12:06:11;9.27;;;5.90;;
72676;SDS011;60755;51.374;10.662;2023-12-04T12:08:39;7.70;;;5.77;;
72676;SDS011;60755;51.374;10.662;2023-12-04T12:11:07;8.50;;;5.80;;
72676;SDS011;60755;51.374;10.662;2023-12-04T12:13:34;10.10;;;6.07;;
72676;SDS011;60755;51.374;10.662;2023-12-04T12:16:01;7.90;;;5.80;;
72676;SDS011;60755;51.374;10.662;2023-12-04T12:18:30;8.97;;;6.10;;
72676;SDS011;60755;51.374;10.662;2023-12-04T12:21:01;10.23;;;6.13;;
72676;SDS011;60755;51.374;10.662;2023-12-04T12:23:28;9.23;;;6.47;;
72676;SDS011;60755;51.374;10.662;2023-12-04T12:25:55;7.90;;;5.93;;
72676;SDS011;60755;51.374;10.662;2023-12-04T12:28:22;11.37;;;6.40;;
72676;SDS011;60755;51.374;10.662;2023-12-04T12:30:50;8.57;;;5.87;;
72676;SDS011;60755;51.374;10.662;2023-12-04T12:33:19;7.23;;;5.70;;
72676;SDS011;60755;51.374;10.662;2023-12-04T12:35:50;7.43;;;5.50;;
72676;SDS011;60755;51.374;10.662;2023-12-04T12:38:17;9.17;;;5.73;;
72676;SDS011;60755;51.374;10.662;2023-12-04T12:40:45;12.73;;;8.07;;
72676;SDS011;60755;51.374;10.662;2023-12-04T12:43:12;16.50;;;9.43;;
72676;SDS011;60755;51.374;10.662;2023-12-04T12:45:40;19.47;;;11.90;;
72676;SDS011;60755;51.374;10.662;2023-12-04T12:48:09;20.53;;;11.13;;
72676;SDS011;60755;51.374;10.662;2023-12-04T12:50:37;21.10;;;11.00;;
72676;SDS011;60755;51.374;10.662;2023-12-04T12:53:05;19.23;;;10.40;;
72676;SDS011;60755;51.374;10.662;2023-12-04T12:55:33;17.43;;;9.63;;
72676;SDS011;60755;51.374;10.662;2023-12-04T12:58:01;12.80;;;8.23;;
72676;SDS011;60755;51.374;10.662;2023-12-04T13:00:32;12.93;;;8.40;;
72676;SDS011;60755;51.374;10.662;2023-12-04T13:02:59;14.03;;;8.37;;
72676;SDS011;60755;51.374;10.662;2023-12-04T13:05:28;14.23;;;8.37;;
72676;SDS011;60755;51.374;10.662;2023-12-04T13:07:55;14.47;;;9.00;;
72676;SDS011;60755;51.374;10.662;2023-12-04T13:10:24;13.20;;;8.03;;
72676;SDS011;60755;51.374;10.662;2023-12-04T13:12:51;15.40;;;8.77;;
72676;SDS011;60755;51.374;10.662;2023-12-04T13:15:21;15.83;;;8.80;;
72676;SDS011;60755;51.374;10.662;2023-12-04T13:17:48;18.57;;;11.03;;
72676;SDS011;60755;51.374;10.662;2023-12-04T13:20:15;20.33;;;11.43;;
72676;SDS011;60755;51.374;10.662;2023-12-04T13:22:42;25.93;;;13.10;;
72676;SDS011;60755;51.374;10.662;2023-12-04T13:25:10;21.13;;;11.40;;
72676;SDS011;60755;51.374;10.662;2023-12-04T13:27:39;20.63;;;10.47;;
72676;SDS011;60755;51.374;10.662;2023-12-04T13:30:06;18.87;;;9.57;;
72676;SDS011;60755;51.374;10.662;2023-12-04T13:32:34;13.10;;;8.17;;
72676;SDS011;60755;51.374;10.662;2023-12-04T13:35:02;13.00;;;8.17;;
72676;SDS011;60755;51.374;10.662;2023-12-04T13:37:30;12.57;;;7.50;;
72676;SDS011;60755;51.374;10.662;2023-12-04T13:39:57;12.07;;;7.13;;
72676;SDS011;60755;51.374;10.662;2023-12-04T13:42:29;11.43;;;7.00;;
72676;SDS011;60755;51.374;10.662;2023-12-04T13:45:15;10.77;;;6.53;;
72676;SDS011;60755;51.374;10.662;2023-12-04T13:47:42;11.40;;;6.43;;
72676;SDS011;60755;51.374;10.662;2023-12-04T13:50:10;10.77;;;6.07;;
72676;SDS011;60755;51.374;10.662;2023-12-04T13:52:38;7.80;;;5.20;;
72676;SDS011;60755;51.374;10.662;2023-12-04T13:55:05;9.77;;;6.40;;
72676;SDS011;60755;51.374;10.662;2023-12-04T13:57:42;9.07;;;6.30;;
72676;SDS011;60755;51.374;10.662;2023-12-04T14:00:23;8.60;;;6.03;;
72676;SDS011;60755;51.374;10.662;2023-12-04T14:02:51;7.63;;;5.50;;
72676;SDS011;60755;51.374;10.662;2023-12-04T14:05:19;7.73;;;5.87;;
72676;SDS011;60755;51.374;10.662;2023-12-04T14:07:48;7.33;;;5.43;;
72676;SDS011;60755;51.374;10.662;2023-12-04T14:10:15;7.83;;;5.50;;
72676;SDS011;60755;51.374;10.662;2023-12-04T14:12:42;8.13;;;5.50;;
72676;SDS011;60755;51.374;10.662;2023-12-04T14:15:10;6.27;;;4.97;;
72676;SDS011;60755;51.374;10.662;2023-12-04T14:17:38;7.53;;;5.10;;
72676;SDS011;60755;51.374;10.662;2023-12-04T14:20:06;8.90;;;6.40;;
72676;SDS011;60755;51.374;10.662;2023-12-04T14:22:42;7.20;;;4.90;;